Time;durP1;ratioP1;P1;durP2;ratioP2;P2;SDS_P1;SDS_P2;PMS_P1;PMS_P2;Temp;Humidity;BMP_temperature;BMP_pressure;BME280_temperature;BME280_humidity;BME280_pressure;Samples;Min_cycle;Max_cycle;Signal;HPM_P1;HPM_P2
2023/07/18 00:00:19;;;;;;;;;;;24.00;49.20;;;;;;4983786;28;19934;-79
2023/07/18 00:02:46;;;;;;;;;;;24.00;49.40;;;;;;4984609;28;19934;-79
2023/07/18 00:05:13;;;;;;;;;;;23.90;49.50;;;;;;4983091;28;19934;-78
2023/07/18 00:07:41;;;;;;;;;;;23.90;49.60;;;;;;4981505;28;19930;-78
2023/07/18 00:10:08;;;;;;;;;;;23.80;49.50;;;;;;4984775;28;20036;-79
2023/07/18 00:12:35;;;;;;;;;;;23.80;49.50;;;;;;4984404;28;19964;-79
2023/07/18 00:15:03;;;;;;;;;;;23.80;49.60;;;;;;4985167;28;20009;-79
2023/07/18 00:17:33;;;;;;;;;;;23.70;49.70;;;;;;4985734;28;19929;-80
2023/07/18 00:20:00;;;;;;;;;;;23.70;49.80;;;;;;4986764;28;19933;-79
2023/07/18 00:22:26;;;;;;;;;;;23.60;49.80;;;;;;4989977;28;19934;-79
2023/07/18 00:24:53;;;;;;;;;;;23.60;50.00;;;;;;4996135;28;19936;-80
2023/07/18 00:27:19;;;;;;;;;;;23.60;50.00;;;;;;4997298;28;19941;-79
2023/07/18 00:29:46;;;;;;;;;;;23.50;50.10;;;;;;4996984;28;19930;-79
2023/07/18 00:32:12;;;;;;;;;;;23.50;50.50;;;;;;4993480;28;19933;-79
2023/07/18 00:34:41;;;;;;;;;;;23.50;50.50;;;;;;4983940;28;19929;-78
2023/07/18 00:37:07;;;;;;;;;;;23.40;50.40;;;;;;4985366;28;20030;-79
2023/07/18 00:39:34;;;;;;;;;;;23.40;50.40;;;;;;4986104;28;19934;-79
2023/07/18 00:42:01;;;;;;;;;;;23.40;50.40;;;;;;4985451;28;20407;-79
2023/07/18 00:44:27;;;;;;;;;;;23.30;50.40;;;;;;4986570;28;20020;-79
2023/07/18 00:46:54;;;;;;;;;;;23.30;50.50;;;;;;4986293;28;19929;-79
2023/07/18 00:49:22;;;;;;;;;;;23.30;50.60;;;;;;4983050;28;19933;-79
2023/07/18 00:51:50;;;;;;;;;;;23.30;50.70;;;;;;4983851;28;20388;-79
2023/07/18 00:54:17;;;;;;;;;;;23.20;50.70;;;;;;4978139;28;21009;-78
2023/07/18 00:56:44;;;;;;;;;;;23.20;50.80;;;;;;4983677;28;20024;-79
2023/07/18 00:59:11;;;;;;;;;;;23.10;50.90;;;;;;4982263;28;20480;-79
2023/07/18 01:01:38;;;;;;;;;;;23.10;51.00;;;;;;4982852;28;20032;-79
2023/07/18 01:04:05;;;;;;;;;;;23.10;51.00;;;;;;4984628;28;19934;-79
2023/07/18 01:06:31;;;;;;;;;;;23.10;51.10;;;;;;4983285;28;19930;-78
2023/07/18 01:08:59;;;;;;;;;;;23.00;51.20;;;;;;4981382;28;19934;-78
2023/07/18 01:11:26;;;;;;;;;;;23.00;51.30;;;;;;4978876;28;19930;-79
2023/07/18 01:13:53;;;;;;;;;;;22.90;51.40;;;;;;4981217;28;20486;-79
2023/07/18 01:16:19;;;;;;;;;;;23.00;51.50;;;;;;4984441;28;19972;-78
2023/07/18 01:18:46;;;;;;;;;;;22.90;51.50;;;;;;4984857;28;19930;-78
2023/07/18 01:21:17;;;;;;;;;;;22.90;51.70;;;;;;4984712;28;19938;-79
2023/07/18 01:23:44;;;;;;;;;;;22.80;51.70;;;;;;4983071;28;19934;-78
2023/07/18 01:26:10;;;;;;;;;;;22.80;51.80;;;;;;4979925;28;19930;-79
2023/07/18 01:28:37;;;;;;;;;;;22.70;51.80;;;;;;4983589;28;19937;-79
2023/07/18 01:31:03;;;;;;;;;;;22.70;51.90;;;;;;4978556;28;19930;-78
2023/07/18 01:33:30;;;;;;;;;;;22.80;52.10;;;;;;4982262;28;19957;-79
2023/07/18 01:35:56;;;;;;;;;;;22.70;52.10;;;;;;4981405;28;19930;-79
2023/07/18 01:38:29;;;;;;;;;;;22.70;52.20;;;;;;4984810;28;19930;-77
2023/07/18 01:40:55;;;;;;;;;;;22.60;52.20;;;;;;4978268;28;20318;-79
2023/07/18 01:43:22;;;;;;;;;;;22.60;52.30;;;;;;4976678;28;19949;-78
2023/07/18 01:45:49;;;;;;;;;;;22.50;52.40;;;;;;4980867;28;20021;-78
2023/07/18 01:48:16;;;;;;;;;;;22.60;52.50;;;;;;4984612;28;19941;-78
2023/07/18 01:50:43;;;;;;;;;;;22.50;52.50;;;;;;4982111;28;20144;-79
2023/07/18 01:53:10;;;;;;;;;;;22.50;52.60;;;;;;4981177;28;19960;-78
2023/07/18 01:55:38;;;;;;;;;;;22.40;52.50;;;;;;4981608;28;20453;-79
2023/07/18 01:58:05;;;;;;;;;;;22.40;52.60;;;;;;4978320;28;20311;-79
2023/07/18 02:00:32;;;;;;;;;;;22.40;52.70;;;;;;4979339;28;19933;-79
2023/07/18 02:02:58;;;;;;;;;;;22.30;52.70;;;;;;4981860;28;19930;-79
2023/07/18 02:05:25;;;;;;;;;;;22.30;52.70;;;;;;4984206;28;19930;-78
2023/07/18 02:07:52;;;;;;;;;;;22.30;52.80;;;;;;4982117;28;20556;-79
2023/07/18 02:10:20;;;;;;;;;;;22.30;52.90;;;;;;4983122;28;19930;-78
2023/07/18 02:12:48;;;;;;;;;;;22.20;52.80;;;;;;4982533;28;19933;-78
2023/07/18 02:15:15;;;;;;;;;;;22.20;53.00;;;;;;4983671;28;19941;-78
2023/07/18 02:17:42;;;;;;;;;;;22.10;53.00;;;;;;4983459;28;19930;-78
2023/07/18 02:20:11;;;;;;;;;;;22.10;53.00;;;;;;4984665;28;19940;-78
2023/07/18 02:22:39;;;;;;;;;;;22.10;53.10;;;;;;4985193;28;20474;-79
2023/07/18 02:25:06;;;;;;;;;;;22.10;53.20;;;;;;4982391;28;19933;-79
2023/07/18 02:27:34;;;;;;;;;;;22.00;53.20;;;;;;4985791;28;19936;-78
2023/07/18 02:30:02;;;;;;;;;;;22.00;53.30;;;;;;4984710;28;20002;-79
2023/07/18 02:32:29;;;;;;;;;;;21.90;53.30;;;;;;4981981;28;20307;-79
2023/07/18 02:34:55;;;;;;;;;;;21.90;53.40;;;;;;4983043;28;19934;-78
2023/07/18 02:37:23;;;;;;;;;;;21.90;53.50;;;;;;4988115;28;19937;-79
2023/07/18 02:39:49;;;;;;;;;;;21.80;53.50;;;;;;4989434;28;19997;-78
2023/07/18 02:42:17;;;;;;;;;;;21.80;53.60;;;;;;4988443;28;19960;-79
2023/07/18 02:44:44;;;;;;;;;;;21.80;54.20;;;;;;4989394;28;20315;-79
2023/07/18 02:47:12;;;;;;;;;;;21.70;53.60;;;;;;4987301;28;19930;-79
2023/07/18 02:49:38;;;;;;;;;;;21.70;53.70;;;;;;4984387;28;20055;-77
2023/07/18 02:52:05;;;;;;;;;;;21.70;53.80;;;;;;4986930;28;19937;-78
2023/07/18 02:54:32;;;;;;;;;;;21.70;53.80;;;;;;4984806;28;19930;-78
2023/07/18 02:56:59;;;;;;;;;;;21.60;53.80;;;;;;4985520;28;20327;-79
2023/07/18 02:59:26;;;;;;;;;;;21.60;53.90;;;;;;4985516;28;19969;-78
2023/07/18 03:01:56;;;;;;;;;;;21.60;53.90;;;;;;4980528;28;20331;-77
2023/07/18 03:04:26;;;;;;;;;;;21.50;53.90;;;;;;4985334;28;20028;-79
2023/07/18 03:06:53;;;;;;;;;;;21.50;54.00;;;;;;4983281;28;19960;-78
2023/07/18 03:09:21;;;;;;;;;;;21.40;54.00;;;;;;4981856;28;19929;-79
2023/07/18 03:11:48;;;;;;;;;;;21.50;54.20;;;;;;4985919;28;20685;-79
2023/07/18 03:14:14;;;;;;;;;;;21.40;54.10;;;;;;4986168;28;20620;-79
2023/07/18 03:16:41;;;;;;;;;;;21.40;54.20;;;;;;4986453;28;19934;-79
2023/07/18 03:19:08;;;;;;;;;;;21.30;54.20;;;;;;4982837;28;19937;-78
2023/07/18 03:21:36;;;;;;;;;;;21.30;54.20;;;;;;4986550;28;19937;-79
2023/07/18 03:24:02;;;;;;;;;;;21.20;54.80;;;;;;4982692;28;19930;-76
2023/07/18 03:26:29;;;;;;;;;;;21.20;54.20;;;;;;4984037;28;19934;-79
2023/07/18 03:28:56;;;;;;;;;;;21.20;54.30;;;;;;4982779;28;19941;-78
2023/07/18 03:31:22;;;;;;;;;;;21.20;54.30;;;;;;4984729;28;19984;-79
2023/07/18 03:33:49;;;;;;;;;;;21.10;54.40;;;;;;4983653;28;19984;-79
2023/07/18 03:36:15;;;;;;;;;;;21.20;54.50;;;;;;4978740;28;19940;-78
2023/07/18 03:38:43;;;;;;;;;;;21.10;54.50;;;;;;4982367;28;19936;-78
2023/07/18 03:41:10;;;;;;;;;;;21.10;54.60;;;;;;4983264;28;19930;-79
2023/07/18 03:43:36;;;;;;;;;;;21.00;54.60;;;;;;4983020;28;19941;-78
2023/07/18 03:46:03;;;;;;;;;;;21.00;54.70;;;;;;4985209;28;19936;-78
2023/07/18 03:48:29;;;;;;;;;;;21.00;54.80;;;;;;4983710;28;19934;-79
2023/07/18 03:50:56;;;;;;;;;;;20.90;54.80;;;;;;4984678;28;19929;-78
2023/07/18 03:53:22;;;;;;;;;;;20.90;54.90;;;;;;4981719;28;19937;-79
2023/07/18 03:55:51;;;;;;;;;;;20.90;54.90;;;;;;4982808;28;19937;-79
2023/07/18 03:58:17;;;;;;;;;;;20.90;55.00;;;;;;4981766;28;19937;-78
2023/07/18 04:00:44;;;;;;;;;;;20.80;55.00;;;;;;4983243;28;19932;-78
2023/07/18 04:03:12;;;;;;;;;;;20.70;55.10;;;;;;4983487;28;20718;-78
2023/07/18 04:05:39;;;;;;;;;;;20.70;55.10;;;;;;4984208;28;19929;-79
2023/07/18 04:08:05;;;;;;;;;;;20.70;55.20;;;;;;4983722;28;19941;-79
2023/07/18 04:10:32;;;;;;;;;;;20.70;55.30;;;;;;4984955;28;19976;-80
2023/07/18 04:13:00;;;;;;;;;;;20.70;55.40;;;;;;4985209;28;19953;-80
2023/07/18 04:15:27;;;;;;;;;;;20.60;55.40;;;;;;4984826;28;19936;-79
2023/07/18 04:17:53;;;;;;;;;;;20.60;55.50;;;;;;4989344;28;19930;-79
2023/07/18 04:20:21;;;;;;;;;;;20.60;55.60;;;;;;4989255;28;19938;-79
2023/07/18 04:22:48;;;;;;;;;;;20.50;55.60;;;;;;4984900;28;20363;-80
2023/07/18 04:25:15;;;;;;;;;;;20.50;55.70;;;;;;4984598;28;19926;-80
2023/07/18 04:27:41;;;;;;;;;;;20.50;55.70;;;;;;4984409;28;19929;-81
2023/07/18 04:30:10;;;;;;;;;;;20.50;55.80;;;;;;4984420;28;19953;-77
2023/07/18 04:32:36;;;;;;;;;;;20.40;55.80;;;;;;4987591;28;19933;-80
2023/07/18 04:35:04;;;;;;;;;;;20.50;56.00;;;;;;4987903;28;20356;-79
2023/07/18 04:37:30;;;;;;;;;;;20.40;56.00;;;;;;4986498;28;19930;-79
2023/07/18 04:39:57;;;;;;;;;;;20.40;56.10;;;;;;4985301;28;19933;-79
2023/07/18 04:42:23;;;;;;;;;;;20.40;56.20;;;;;;4979599;28;19930;-80
2023/07/18 04:44:50;;;;;;;;;;;20.40;56.30;;;;;;4987890;28;19937;-79
2023/07/18 04:47:18;;;;;;;;;;;20.30;56.30;;;;;;4987043;28;19940;-80
2023/07/18 04:49:45;;;;;;;;;;;20.30;56.40;;;;;;4987975;28;19930;-79
2023/07/18 04:52:11;;;;;;;;;;;20.30;56.50;;;;;;4987056;28;19930;-79
2023/07/18 04:54:38;;;;;;;;;;;20.30;56.60;;;;;;4990608;28;19976;-80
2023/07/18 04:57:05;;;;;;;;;;;20.00;60.00;;;;;;4984455;28;19976;-80
2023/07/18 04:59:31;;;;;;;;;;;19.70;61.20;;;;;;4983781;28;20296;-78
2023/07/18 05:01:58;;;;;;;;;;;19.60;61.20;;;;;;4985560;28;19937;-79
2023/07/18 05:04:26;;;;;;;;;;;19.50;61.10;;;;;;4986418;28;19934;-78
2023/07/18 05:06:52;;;;;;;;;;;19.50;60.90;;;;;;4982567;28;19929;-80
2023/07/18 05:09:19;;;;;;;;;;;19.50;60.70;;;;;;4983772;28;20392;-78
2023/07/18 05:11:46;;;;;;;;;;;19.60;60.50;;;;;;4987193;28;19933;-78
2023/07/18 05:14:13;;;;;;;;;;;19.60;60.30;;;;;;4986254;28;20008;-78
2023/07/18 05:16:40;;;;;;;;;;;19.70;60.20;;;;;;4982388;28;19933;-78
2023/07/18 05:19:06;;;;;;;;;;;19.60;60.10;;;;;;4984101;28;19937;-78
2023/07/18 05:21:34;;;;;;;;;;;19.60;59.90;;;;;;4985806;28;19937;-78
2023/07/18 05:24:01;;;;;;;;;;;19.60;59.90;;;;;;4981259;28;19930;-80
2023/07/18 05:26:27;;;;;;;;;;;19.60;59.80;;;;;;4985071;28;19929;-80
2023/07/18 05:28:54;;;;;;;;;;;19.60;59.80;;;;;;4978470;28;19930;-79
2023/07/18 05:31:20;;;;;;;;;;;19.70;59.80;;;;;;4981699;28;19934;-78
2023/07/18 05:33:47;;;;;;;;;;;19.60;59.70;;;;;;4980512;28;19964;-78
2023/07/18 05:36:15;;;;;;;;;;;19.70;59.80;;;;;;4981154;28;19936;-80
2023/07/18 05:38:43;;;;;;;;;;;19.70;59.80;;;;;;4984427;28;19930;-79
2023/07/18 05:41:10;;;;;;;;;;;19.70;59.70;;;;;;4985985;28;19934;-80
2023/07/18 05:43:37;;;;;;;;;;;19.70;59.70;;;;;;4980850;28;20399;-78
2023/07/18 05:46:03;;;;;;;;;;;19.70;59.70;;;;;;4982286;28;19930;-79
2023/07/18 05:48:30;;;;;;;;;;;19.60;59.60;;;;;;4981562;28;20331;-79
2023/07/18 05:50:57;;;;;;;;;;;19.70;59.60;;;;;;4980657;28;19945;-79
2023/07/18 05:53:24;;;;;;;;;;;19.70;59.60;;;;;;4977664;28;19930;-80
2023/07/18 05:55:52;;;;;;;;;;;19.70;59.60;;;;;;4982707;28;19929;-78
2023/07/18 05:58:19;;;;;;;;;;;19.70;59.60;;;;;;4983701;28;19933;-79
2023/07/18 06:00:46;;;;;;;;;;;19.70;59.60;;;;;;4981925;28;19948;-78
2023/07/18 06:03:12;;;;;;;;;;;19.70;59.60;;;;;;4983324;28;20458;-78
2023/07/18 06:05:39;;;;;;;;;;;19.70;59.60;;;;;;4979672;28;20378;-79
2023/07/18 06:08:07;;;;;;;;;;;19.70;59.60;;;;;;4979363;28;19976;-79
2023/07/18 06:10:33;;;;;;;;;;;19.70;59.60;;;;;;4983562;28;19957;-80
2023/07/18 06:13:01;;;;;;;;;;;19.70;59.70;;;;;;4985204;28;20420;-80
2023/07/18 06:15:28;;;;;;;;;;;19.70;59.60;;;;;;4985914;28;19931;-78
2023/07/18 06:17:54;;;;;;;;;;;19.70;59.60;;;;;;4988501;28;19929;-78
2023/07/18 06:20:21;;;;;;;;;;;19.70;59.70;;;;;;4988050;28;19934;-79
2023/07/18 06:22:48;;;;;;;;;;;19.70;59.70;;;;;;4984940;28;19937;-80
2023/07/18 06:25:15;;;;;;;;;;;19.80;59.70;;;;;;4987509;28;20133;-79
2023/07/18 06:27:41;;;;;;;;;;;19.80;59.70;;;;;;4989991;28;20323;-79
2023/07/18 06:30:10;;;;;;;;;;;19.80;59.60;;;;;;4988036;28;19930;-79
2023/07/18 06:32:36;;;;;;;;;;;19.80;59.60;;;;;;4987138;28;19933;-79
2023/07/18 06:35:04;;;;;;;;;;;19.80;59.60;;;;;;4989584;28;19930;-79
2023/07/18 06:37:30;;;;;;;;;;;19.80;59.50;;;;;;4984222;28;19944;-78
2023/07/18 06:39:57;;;;;;;;;;;19.80;59.50;;;;;;4980780;28;19938;-79
2023/07/18 06:42:24;;;;;;;;;;;19.80;59.40;;;;;;4983097;28;19929;-79
2023/07/18 06:44:51;;;;;;;;;;;19.90;59.40;;;;;;4985799;28;20347;-80
2023/07/18 06:47:19;;;;;;;;;;;19.90;59.40;;;;;;4985994;28;19949;-78
2023/07/18 06:49:45;;;;;;;;;;;19.90;59.30;;;;;;4979628;28;20639;-79
2023/07/18 06:52:12;;;;;;;;;;;19.90;59.30;;;;;;4983666;28;19930;-79
2023/07/18 06:54:39;;;;;;;;;;;19.90;59.30;;;;;;4979889;28;19988;-78
2023/07/18 06:57:06;;;;;;;;;;;19.90;59.20;;;;;;4985104;28;19929;-79
2023/07/18 06:59:32;;;;;;;;;;;19.90;59.20;;;;;;4981152;28;19929;-80
2023/07/18 07:01:59;;;;;;;;;;;19.90;59.10;;;;;;4977690;28;19991;-79
2023/07/18 07:04:27;;;;;;;;;;;20.00;59.10;;;;;;4985939;28;19988;-78
2023/07/18 07:06:53;;;;;;;;;;;19.90;59.10;;;;;;4979503;28;19945;-81
2023/07/18 07:09:21;;;;;;;;;;;19.90;59.10;;;;;;4978713;28;20372;-76
2023/07/18 07:11:48;;;;;;;;;;;19.90;59.00;;;;;;4986079;28;19993;-76
2023/07/18 07:14:14;;;;;;;;;;;20.00;59.00;;;;;;4986807;28;20296;-76
2023/07/18 07:16:41;;;;;;;;;;;20.00;59.00;;;;;;4978953;28;19926;-76
2023/07/18 07:19:07;;;;;;;;;;;20.00;58.90;;;;;;4986415;28;19965;-76
2023/07/18 07:21:35;;;;;;;;;;;20.00;59.00;;;;;;4987020;28;19934;-76
2023/07/18 07:24:02;;;;;;;;;;;20.00;59.00;;;;;;4985106;28;19934;-76
2023/07/18 07:26:29;;;;;;;;;;;20.10;58.90;;;;;;4984136;28;19941;-75
2023/07/18 07:28:55;;;;;;;;;;;20.10;58.90;;;;;;4985286;28;20385;-76
2023/07/18 07:31:22;;;;;;;;;;;20.10;58.80;;;;;;4987000;28;19944;-76
2023/07/18 07:33:48;;;;;;;;;;;20.10;58.70;;;;;;4981482;28;19969;-76
2023/07/18 07:36:15;;;;;;;;;;;20.10;58.70;;;;;;4980635;28;19956;-76
2023/07/18 07:38:43;;;;;;;;;;;20.20;58.80;;;;;;4980057;28;20454;-77
2023/07/18 07:41:09;;;;;;;;;;;20.20;58.80;;;;;;4982199;28;20540;-76
2023/07/18 07:43:36;;;;;;;;;;;20.20;58.70;;;;;;4981825;28;19937;-77
2023/07/18 07:46:03;;;;;;;;;;;20.20;58.80;;;;;;4982982;28;19934;-77
2023/07/18 07:48:29;;;;;;;;;;;20.20;58.80;;;;;;4979260;28;20507;-77
2023/07/18 07:50:57;;;;;;;;;;;20.30;58.60;;;;;;4983059;28;20303;-76
2023/07/18 07:53:24;;;;;;;;;;;20.30;58.70;;;;;;4983693;28;19936;-76
2023/07/18 07:55:52;;;;;;;;;;;20.30;58.60;;;;;;4979489;28;19930;-76
2023/07/18 07:58:18;;;;;;;;;;;20.30;58.50;;;;;;4986485;28;19937;-76
2023/07/18 08:00:45;;;;;;;;;;;20.30;58.40;;;;;;4982343;28;19937;-76
2023/07/18 08:03:11;;;;;;;;;;;20.40;58.50;;;;;;4980581;28;19968;-77
2023/07/18 08:05:38;;;;;;;;;;;20.40;58.30;;;;;;4983923;28;20307;-76
2023/07/18 08:08:05;;;;;;;;;;;20.40;58.20;;;;;;4975518;28;20588;-76
2023/07/18 08:10:31;;;;;;;;;;;20.50;58.10;;;;;;4983475;28;19937;-76
2023/07/18 08:12:59;;;;;;;;;;;20.50;58.10;;;;;;4980937;28;19933;-76
2023/07/18 08:15:26;;;;;;;;;;;20.50;58.00;;;;;;4985418;28;19940;-76
2023/07/18 08:17:54;;;;;;;;;;;20.50;58.00;;;;;;4977030;28;19993;-76
2023/07/18 08:20:21;;;;;;;;;;;20.60;58.00;;;;;;4981907;28;19930;-76
2023/07/18 08:22:47;;;;;;;;;;;20.60;58.00;;;;;;4985213;28;19964;-76
2023/07/18 08:25:14;;;;;;;;;;;20.60;57.80;;;;;;4982931;28;19960;-76
2023/07/18 08:27:40;;;;;;;;;;;20.70;57.70;;;;;;4984603;28;19929;-77
2023/07/18 08:30:09;;;;;;;;;;;20.70;57.50;;;;;;4987616;28;20012;-75
2023/07/18 08:32:36;;;;;;;;;;;20.70;57.40;;;;;;4986108;28;19937;-76
2023/07/18 08:35:02;;;;;;;;;;;20.80;57.60;;;;;;4983546;28;19929;-76
2023/07/18 08:37:29;;;;;;;;;;;20.80;57.50;;;;;;4984808;28;19934;-76
2023/07/18 08:39:56;;;;;;;;;;;20.90;57.50;;;;;;4985135;28;19937;-76
2023/07/18 08:42:24;;;;;;;;;;;20.90;57.40;;;;;;4984409;28;19933;-76
2023/07/18 08:44:53;;;;;;;;;;;20.90;57.20;;;;;;4981198;28;20363;-76
2023/07/18 08:47:22;;;;;;;;;;;20.90;57.20;;;;;;4983326;28;19941;-76
2023/07/18 08:49:48;;;;;;;;;;;21.00;57.10;;;;;;4980930;28;19934;-76
2023/07/18 08:52:15;;;;;;;;;;;21.00;57.00;;;;;;4977599;28;19930;-76
2023/07/18 08:54:41;;;;;;;;;;;21.10;57.00;;;;;;4974541;28;20340;-76
2023/07/18 08:57:08;;;;;;;;;;;21.10;56.80;;;;;;4984587;28;20309;-76
2023/07/18 08:59:35;;;;;;;;;;;21.10;56.80;;;;;;4986026;28;19937;-76
2023/07/18 09:02:01;;;;;;;;;;;21.20;56.70;;;;;;4975370;28;19937;-76
2023/07/18 09:04:31;;;;;;;;;;;21.20;56.60;;;;;;4982017;28;19934;-75
2023/07/18 09:06:58;;;;;;;;;;;21.30;56.60;;;;;;4980803;28;19940;-76
2023/07/18 09:09:25;;;;;;;;;;;21.30;56.60;;;;;;4981222;28;19937;-76
2023/07/18 09:11:55;;;;;;;;;;;21.40;56.50;;;;;;4982978;28;19987;-76
2023/07/18 09:14:26;;;;;;;;;;;21.40;56.30;;;;;;4983394;28;20012;-76
2023/07/18 09:16:53;;;;;;;;;;;21.40;56.10;;;;;;4980470;28;20379;-77
2023/07/18 09:19:20;;;;;;;;;;;21.50;55.70;;;;;;4986009;28;19996;-76
2023/07/18 09:21:48;;;;;;;;;;;21.60;55.80;;;;;;4980208;28;19933;-77
2023/07/18 09:24:15;;;;;;;;;;;21.60;55.70;;;;;;4981031;28;20438;-77
2023/07/18 09:26:42;;;;;;;;;;;21.60;55.50;;;;;;4978130;28;19961;-77
2023/07/18 09:29:11;;;;;;;;;;;21.70;55.40;;;;;;4976842;28;19934;-77
2023/07/18 09:31:38;;;;;;;;;;;21.70;55.10;;;;;;4984511;28;20391;-76
2023/07/18 09:34:11;;;;;;;;;;;21.80;55.30;;;;;;4975921;28;20021;-76
2023/07/18 09:36:37;;;;;;;;;;;21.80;55.00;;;;;;4989884;28;19945;-76
2023/07/18 09:39:07;;;;;;;;;;;21.90;54.90;;;;;;4983475;28;19930;-76
2023/07/18 09:41:34;;;;;;;;;;;21.90;54.80;;;;;;4984539;28;20404;-75
2023/07/18 09:44:01;;;;;;;;;;;22.00;54.70;;;;;;4983837;28;20392;-76
2023/07/18 09:46:28;;;;;;;;;;;22.00;54.60;;;;;;4983838;28;19937;-77
2023/07/18 09:48:55;;;;;;;;;;;22.10;54.40;;;;;;4984617;28;19936;-77
2023/07/18 09:51:22;;;;;;;;;;;22.20;54.30;;;;;;4980621;28;19930;-76
2023/07/18 09:53:49;;;;;;;;;;;22.30;54.20;;;;;;4985230;28;19938;-77
2023/07/18 09:56:17;;;;;;;;;;;22.30;54.00;;;;;;4982595;28;19938;-76
2023/07/18 09:58:46;;;;;;;;;;;22.40;54.00;;;;;;4983600;28;19929;-77
2023/07/18 10:01:13;;;;;;;;;;;22.50;53.80;;;;;;4972911;28;20025;-77
2023/07/18 10:03:42;;;;;;;;;;;22.50;53.70;;;;;;4979542;28;20406;-76
2023/07/18 10:06:10;;;;;;;;;;;22.60;53.60;;;;;;4981372;28;20055;-76
2023/07/18 10:08:37;;;;;;;;;;;22.60;53.60;;;;;;4981577;28;19933;-77
2023/07/18 10:11:07;;;;;;;;;;;22.60;53.60;;;;;;4986043;28;19937;-77
2023/07/18 10:13:42;;;;;;;;;;;22.60;53.60;;;;;;4976007;28;21918;-76
2023/07/18 10:16:18;;;;;;;;;;;22.70;53.60;;;;;;4977995;28;20384;-76
2023/07/18 10:18:45;;;;;;;;;;;22.70;53.40;;;;;;4978058;28;20352;-77
2023/07/18 10:21:12;;;;;;;;;;;22.80;53.30;;;;;;4982281;28;20024;-77
2023/07/18 10:23:40;;;;;;;;;;;22.80;53.40;;;;;;4976202;28;20461;-76
2023/07/18 10:26:07;;;;;;;;;;;22.90;53.30;;;;;;4980591;28;20036;-77
2023/07/18 10:28:43;;;;;;;;;;;22.90;53.30;;;;;;4980794;28;20428;-77
2023/07/18 10:31:25;;;;;;;;;;;23.00;53.20;;;;;;4978662;28;20009;-76
2023/07/18 10:34:05;;;;;;;;;;;23.00;53.00;;;;;;4979087;28;19934;-76
2023/07/18 10:36:31;;;;;;;;;;;23.10;53.00;;;;;;4978368;28;19930;-76
2023/07/18 10:38:58;;;;;;;;;;;23.10;52.70;;;;;;4981775;28;19930;-77
2023/07/18 10:41:24;;;;;;;;;;;23.20;52.80;;;;;;4979948;28;19930;-74
2023/07/18 10:43:52;;;;;;;;;;;23.20;52.70;;;;;;4977727;28;19933;-75
2023/07/18 10:46:19;;;;;;;;;;;23.30;52.70;;;;;;4983503;28;19929;-74
2023/07/18 10:48:49;;;;;;;;;;;23.30;52.50;;;;;;4980051;28;20526;-75
2023/07/18 10:51:16;;;;;;;;;;;23.40;52.20;;;;;;4981894;28;20024;-75
2023/07/18 10:53:44;;;;;;;;;;;23.40;52.10;;;;;;4974075;28;20447;-75
2023/07/18 10:56:19;;;;;;;;;;;23.50;52.10;;;;;;4981399;28;19937;-75
2023/07/18 10:58:46;;;;;;;;;;;23.50;51.90;;;;;;4983847;28;19934;-74
2023/07/18 11:01:15;;;;;;;;;;;23.60;51.70;;;;;;4982094;28;20341;-75
2023/07/18 11:03:45;;;;;;;;;;;23.60;51.60;;;;;;4985825;28;19983;-75
2023/07/18 11:06:13;;;;;;;;;;;23.70;51.60;;;;;;4977862;28;19930;-75
2023/07/18 11:08:40;;;;;;;;;;;23.70;51.60;;;;;;4982492;28;20387;-74
2023/07/18 11:11:06;;;;;;;;;;;23.80;51.30;;;;;;4983478;28;19929;-75
2023/07/18 11:13:33;;;;;;;;;;;23.80;51.20;;;;;;4980168;28;19929;-74
2023/07/18 11:16:01;;;;;;;;;;;23.80;51.20;;;;;;4979071;28;19937;-75
2023/07/18 11:18:33;;;;;;;;;;;23.80;51.20;;;;;;4984998;28;20720;-75
2023/07/18 11:21:01;;;;;;;;;;;23.90;51.20;;;;;;4986528;28;20008;-75
2023/07/18 11:23:28;;;;;;;;;;;23.90;51.20;;;;;;4982821;28;20048;-75
2023/07/18 11:25:55;;;;;;;;;;;23.90;51.20;;;;;;4983847;28;19952;-75
2023/07/18 11:28:22;;;;;;;;;;;24.00;51.30;;;;;;4987459;28;19930;-74
2023/07/18 11:30:48;;;;;;;;;;;24.00;51.20;;;;;;4978719;28;20040;-75
2023/07/18 11:33:15;;;;;;;;;;;24.00;51.20;;;;;;4982870;28;20519;-75
2023/07/18 11:35:47;;;;;;;;;;;24.00;51.20;;;;;;4978861;28;19930;-75
2023/07/18 11:38:16;;;;;;;;;;;24.00;51.10;;;;;;4981707;28;20000;-75
2023/07/18 11:40:43;;;;;;;;;;;24.10;51.00;;;;;;4979943;28;19934;-75
2023/07/18 11:43:17;;;;;;;;;;;24.10;50.90;;;;;;4984312;28;19936;-75
2023/07/18 11:45:43;;;;;;;;;;;24.20;50.70;;;;;;4977159;28;19930;-75
2023/07/18 11:48:10;;;;;;;;;;;24.30;50.40;;;;;;4980824;28;19933;-75
2023/07/18 11:50:36;;;;;;;;;;;24.30;50.40;;;;;;4982245;28;19930;-76
2023/07/18 11:53:04;;;;;;;;;;;24.40;50.30;;;;;;4981546;28;20475;-77
2023/07/18 11:55:31;;;;;;;;;;;24.50;50.30;;;;;;4979313;28;19933;-77
2023/07/18 11:57:58;;;;;;;;;;;24.50;50.20;;;;;;4979706;28;19930;-77
2023/07/18 12:00:25;;;;;;;;;;;24.60;50.40;;;;;;4979698;28;19929;-76
2023/07/18 12:02:52;;;;;;;;;;;24.70;50.20;;;;;;4978550;28;19933;-77
2023/07/18 12:05:18;;;;;;;;;;;24.80;50.00;;;;;;4985285;28;19933;-77
2023/07/18 12:07:46;;;;;;;;;;;24.90;49.90;;;;;;4975300;28;19933;-77
2023/07/18 12:10:15;;;;;;;;;;;24.90;49.80;;;;;;4980561;28;20132;-77
2023/07/18 12:12:42;;;;;;;;;;;25.00;49.70;;;;;;4986171;28;20020;-77
2023/07/18 12:15:09;;;;;;;;;;;25.00;49.70;;;;;;4980632;28;19988;-77
2023/07/18 12:17:39;;;;;;;;;;;25.00;49.50;;;;;;4979694;28;19930;-77
2023/07/18 12:20:06;;;;;;;;;;;25.10;49.50;;;;;;4982741;28;19937;-77
2023/07/18 12:22:33;;;;;;;;;;;25.10;49.50;;;;;;4982386;28;19937;-77
2023/07/18 12:25:01;;;;;;;;;;;25.10;49.00;;;;;;4976742;28;19929;-77
2023/07/18 12:27:30;;;;;;;;;;;25.20;49.00;;;;;;4986252;28;20339;-77
2023/07/18 12:29:56;;;;;;;;;;;25.20;49.00;;;;;;4979285;28;19956;-77
2023/07/18 12:32:23;;;;;;;;;;;25.30;48.90;;;;;;4984869;28;19934;-77
2023/07/18 12:34:49;;;;;;;;;;;25.40;48.90;;;;;;4982306;28;19934;-77
2023/07/18 12:37:16;;;;;;;;;;;25.40;48.80;;;;;;4981048;28;19937;-77
2023/07/18 12:39:42;;;;;;;;;;;25.50;48.80;;;;;;4985347;28;19933;-77
2023/07/18 12:42:09;;;;;;;;;;;25.60;48.80;;;;;;4980211;28;19934;-77
2023/07/18 12:44:41;;;;;;;;;;;25.60;48.50;;;;;;4985897;28;20316;-77
2023/07/18 12:47:08;;;;;;;;;;;25.70;48.60;;;;;;4981111;28;19937;-76
2023/07/18 12:49:35;;;;;;;;;;;25.70;48.50;;;;;;4986151;28;19930;-77
2023/07/18 12:52:01;;;;;;;;;;;25.80;48.40;;;;;;4979914;28;19933;-75
2023/07/18 12:54:28;;;;;;;;;;;25.80;48.10;;;;;;4976986;28;19933;-76
2023/07/18 12:56:54;;;;;;;;;;;25.80;47.90;;;;;;4982755;28;19934;-76
2023/07/18 12:59:21;;;;;;;;;;;25.90;48.00;;;;;;4981878;28;19934;-76
2023/07/18 13:01:49;;;;;;;;;;;26.00;48.10;;;;;;4983162;28;20395;-76
2023/07/18 13:04:16;;;;;;;;;;;26.00;48.00;;;;;;4982497;28;19969;-76
2023/07/18 13:06:43;;;;;;;;;;;26.10;47.90;;;;;;4983236;28;20007;-76
2023/07/18 13:09:10;;;;;;;;;;;26.10;47.80;;;;;;4982092;28;20558;-76
2023/07/18 13:11:36;;;;;;;;;;;26.20;47.80;;;;;;4980921;28;19952;-76
2023/07/18 13:14:03;;;;;;;;;;;26.30;47.50;;;;;;4982969;28;19937;-77
2023/07/18 13:16:30;;;;;;;;;;;26.30;47.40;;;;;;4982973;28;20009;-77
2023/07/18 13:18:57;;;;;;;;;;;26.30;47.40;;;;;;4980070;28;19949;-76
2023/07/18 13:21:24;;;;;;;;;;;26.40;47.40;;;;;;4981286;28;19930;-76
2023/07/18 13:23:51;;;;;;;;;;;26.50;47.10;;;;;;4982047;28;19930;-76
2023/07/18 13:26:19;;;;;;;;;;;26.50;47.30;;;;;;4979064;28;19930;-76
2023/07/18 13:28:45;;;;;;;;;;;26.60;47.40;;;;;;4979602;28;20128;-76
2023/07/18 13:31:12;;;;;;;;;;;26.70;47.20;;;;;;4978067;28;19934;-76
2023/07/18 13:33:39;;;;;;;;;;;26.70;47.00;;;;;;4978841;28;19933;-77
2023/07/18 13:36:07;;;;;;;;;;;26.80;46.90;;;;;;4985438;28;19984;-77
2023/07/18 13:38:33;;;;;;;;;;;26.80;46.60;;;;;;4983663;28;19929;-76
2023/07/18 13:41:03;;;;;;;;;;;26.90;46.40;;;;;;4975921;28;19936;-76
2023/07/18 13:43:30;;;;;;;;;;;27.00;46.70;;;;;;4984610;28;19937;-76
2023/07/18 13:45:56;;;;;;;;;;;27.00;46.10;;;;;;4982005;28;19929;-76
2023/07/18 13:48:23;;;;;;;;;;;27.10;46.20;;;;;;4975690;28;19926;-76
2023/07/18 13:50:50;;;;;;;;;;;27.10;45.90;;;;;;4980184;28;19925;-76
2023/07/18 13:53:17;;;;;;;;;;;27.20;46.10;;;;;;4983696;28;19973;-76
2023/07/18 13:55:44;;;;;;;;;;;27.20;45.80;;;;;;4982791;28;19930;-76
2023/07/18 13:58:11;;;;;;;;;;;27.30;45.80;;;;;;4981614;28;19929;-77
2023/07/18 14:00:37;;;;;;;;;;;27.30;45.30;;;;;;4973544;28;20545;-76
2023/07/18 14:03:04;;;;;;;;;;;27.30;45.50;;;;;;4979692;28;19930;-76
2023/07/18 14:05:30;;;;;;;;;;;27.40;45.70;;;;;;4981146;28;19930;-75
2023/07/18 14:07:57;;;;;;;;;;;27.50;45.80;;;;;;4977353;28;19937;-76
2023/07/18 14:10:25;;;;;;;;;;;27.50;45.70;;;;;;4982108;28;19985;-77
2023/07/18 14:12:51;;;;;;;;;;;27.60;45.70;;;;;;4980124;28;19937;-76
2023/07/18 14:15:18;;;;;;;;;;;27.70;45.70;;;;;;4983704;28;19984;-76